Time;durP1;ratioP1;P1;durP2;ratioP2;P2;SDS_P1;SDS_P2;PMS_P1;PMS_P2;Temp;Humidity;BMP_temperature;BMP_pressure;BME280_temperature;BME280_humidity;BME280_pressure;Samples;Min_cycle;Max_cycle;Signal;HPM_P1;HPM_P2
2023/01/14 00:01:54;;;;;;;;;11.00;5.00;;;;;11.27;100.00;101680.09;5101294;27;45344;-79
2023/01/14 00:04:19;;;;;;;;;5.00;3.67;;;;;11.21;100.00;101686.06;5100103;27;45376;-78
2023/01/14 00:06:44;;;;;;;;;8.33;3.33;;;;;11.25;100.00;101670.38;5075954;27;45416;-78
2023/01/14 00:09:13;;;;;;;;;8.00;5.67;;;;;11.27;100.00;101679.25;5080650;27;47024;-78
2023/01/14 00:11:51;;;;;;;;;3.00;3.00;;;;;11.37;100.00;101673.91;5096812;27;45325;-78
2023/01/14 00:14:22;;;;;;;;;7.00;5.00;;;;;11.44;100.00;101675.97;5084445;27;45435;-79
2023/01/14 00:16:51;;;;;;;;;4.67;3.00;;;;;11.45;100.00;101666.81;5099214;27;45426;-77
2023/01/14 00:19:18;;;;;;;;;3.00;3.00;;;;;11.43;100.00;101663.34;5100976;27;46319;-77
2023/01/14 00:21:44;;;;;;;;;4.33;3.00;;;;;11.38;100.00;101660.16;5068004;28;45425;-79
2023/01/14 00:24:11;;;;;;;;;8.00;3.00;;;;;11.40;100.00;101646.41;5079579;28;45251;-79
2023/01/14 00:26:37;;;;;;;;;3.00;3.00;;;;;11.37;100.00;101623.06;5076690;28;45491;-79
2023/01/14 00:29:03;;;;;;;;;4.00;2.00;;;;;11.53;100.00;101638.94;5080117;27;45454;-78
2023/01/14 00:31:29;;;;;;;;;6.33;3.67;;;;;11.50;100.00;101642.78;5078542;28;45923;-78
2023/01/14 00:33:58;;;;;;;;;5.00;3.00;;;;;11.53;100.00;101633.50;5072762;27;45262;-78
2023/01/14 00:36:24;;;;;;;;;5.00;4.00;;;;;11.56;100.00;101631.34;5074528;27;45614;-79
2023/01/14 00:38:49;;;;;;;;;1.33;1.00;;;;;11.44;100.00;101621.53;5081421;27;45567;-77
2023/01/14 00:41:20;;;;;;;;;3.00;2.67;;;;;11.44;100.00;101610.66;5078541;28;45449;-77
2023/01/14 00:43:48;;;;;;;;;1.67;0.67;;;;;11.51;100.00;101606.41;5082540;28;45388;-78
2023/01/14 00:46:16;;;;;;;;;1.00;1.00;;;;;11.57;100.00;101614.03;5075267;27;45470;-78
2023/01/14 00:48:43;;;;;;;;;2.00;2.00;;;;;11.47;100.00;101604.94;5075385;28;45513;-78
2023/01/14 00:51:10;;;;;;;;;2.00;2.00;;;;;11.45;100.00;101600.63;5076724;28;45474;-78
2023/01/14 00:53:36;;;;;;;;;1.67;1.67;;;;;11.47;100.00;101606.81;5084823;27;45450;-78
2023/01/14 00:56:02;;;;;;;;;3.00;2.00;;;;;11.36;100.00;101596.84;5083839;28;45323;-77
2023/01/14 00:58:27;;;;;;;;;2.67;2.00;;;;;11.31;100.00;101589.09;5084394;28;46382;-77
2023/01/14 01:00:54;;;;;;;;;3.33;1.33;;;;;11.42;100.00;101584.56;5085189;27;45392;-77
2023/01/14 01:03:20;;;;;;;;;2.00;0.67;;;;;11.46;100.00;101584.19;5083584;28;45367;-77
2023/01/14 01:05:46;;;;;;;;;1.33;1.33;;;;;11.54;100.00;101584.34;5085200;28;45604;-76
2023/01/14 01:08:15;;;;;;;;;2.00;0.00;;;;;11.46;100.00;101573.28;5081163;27;46901;-76
2023/01/14 01:10:43;;;;;;;;;1.00;1.00;;;;;11.39;100.00;101574.81;5084004;28;45495;-77
2023/01/14 01:13:09;;;;;;;;;2.00;2.00;;;;;11.38;100.00;101569.50;5078830;27;45251;-77
2023/01/14 01:15:36;;;;;;;;;2.33;2.00;;;;;11.39;100.00;101558.50;5076565;28;45587;-77
2023/01/14 01:18:03;;;;;;;;;3.00;3.00;;;;;11.47;100.00;101558.66;5081466;28;45472;-77
2023/01/14 01:20:29;;;;;;;;;4.00;3.00;;;;;11.49;100.00;101548.53;5077734;28;45373;-76
2023/01/14 01:22:55;;;;;;;;;4.00;2.00;;;;;11.51;100.00;101542.94;5088924;27;45463;-77
2023/01/14 01:25:21;;;;;;;;;2.00;2.00;;;;;11.51;100.00;101546.53;5094437;27;45420;-77
2023/01/14 01:27:46;;;;;;;;;1.00;1.00;;;;;11.28;100.00;101542.25;5099121;27;45475;-76
2023/01/14 01:30:12;;;;;;;;;2.33;2.33;;;;;11.43;100.00;101545.47;5092461;27;45318;-77
2023/01/14 01:32:38;;;;;;;;;6.67;3.67;;;;;11.51;100.00;101545.66;5086365;27;45336;-77
2023/01/14 01:35:04;;;;;;;;;6.33;4.67;;;;;11.55;100.00;101547.97;5098727;27;45247;-77
2023/01/14 01:37:29;;;;;;;;;4.33;4.00;;;;;11.58;100.00;101550.44;5084897;27;47646;-77
2023/01/14 01:39:55;;;;;;;;;2.00;2.00;;;;;11.64;100.00;101530.84;5079768;27;45318;-77
2023/01/14 01:42:23;;;;;;;;;3.00;3.00;;;;;11.64;100.00;101530.84;5095727;27;45388;-77
2023/01/14 01:44:48;;;;;;;;;5.00;3.67;;;;;11.64;100.00;101533.56;5084365;28;45334;-77
2023/01/14 01:47:16;;;;;;;;;3.67;3.67;;;;;11.64;100.00;101533.56;5076932;27;48068;-77
2023/01/14 01:49:42;;;;;;;;;3.00;3.00;;;;;11.66;100.00;101538.88;5084473;27;45435;-77
2023/01/14 01:52:13;;;;;;;;;4.67;4.00;;;;;11.65;100.00;101551.63;5102810;27;45430;-77
2023/01/14 01:54:50;;;;;;;;;4.00;4.00;;;;;11.68;100.00;101537.75;5100560;27;45357;-77
2023/01/14 01:57:16;;;;;;;;;5.00;5.00;;;;;11.66;100.00;101536.16;5102194;27;45403;-77
2023/01/14 01:59:45;;;;;;;;;4.00;4.00;;;;;11.70;100.00;101534.88;5105267;27;45320;-77
2023/01/14 02:02:11;;;;;;;;;5.00;5.00;;;;;11.70;100.00;101530.28;5086047;27;45455;-77
2023/01/14 02:04:37;;;;;;;;;9.67;5.33;;;;;11.65;100.00;101529.84;5106230;27;45312;-78
2023/01/14 02:07:02;;;;;;;;;9.00;4.67;;;;;11.74;100.00;101516.41;5075126;27;48146;-77
2023/01/14 02:09:29;;;;;;;;;3.33;3.33;;;;;11.83;100.00;101523.78;5096978;27;45386;-78
2023/01/14 02:12:00;;;;;;;;;6.67;4.33;;;;;11.80;100.00;101519.47;5104404;27;45348;-77
2023/01/14 02:14:34;;;;;;;;;3.33;3.33;;;;;11.81;100.00;101517.63;5076234;28;45504;-78
2023/01/14 02:17:11;;;;;;;;;4.33;4.33;;;;;11.86;100.00;101501.72;5073486;27;48006;-78
2023/01/14 02:20:03;;;;;;;;;3.00;3.00;;;;;11.92;100.00;101493.00;5086612;27;45336;-77
2023/01/14 02:22:41;;;;;;;;;4.00;3.67;;;;;11.92;100.00;101488.41;5081522;27;45353;-77
2023/01/14 02:25:39;;;;;;;;;3.67;2.33;;;;;11.93;100.00;101473.78;5100291;27;45325;-78
2023/01/14 02:28:07;;;;;;;;;4.00;4.00;;;;;11.95;100.00;101468.22;5097032;27;46264;-77
2023/01/14 02:30:48;;;;;;;;;4.67;3.67;;;;;11.95;100.00;101458.19;5099461;27;45489;-77
2023/01/14 02:33:33;;;;;;;;;7.67;4.67;;;;;11.98;100.00;101462.50;5097867;27;45381;-77
2023/01/14 02:36:17;;;;;;;;;7.67;2.33;;;;;11.91;100.00;101472.19;5096692;27;45497;-77
2023/01/14 02:39:25;;;;;;;;;2.00;1.00;;;;;11.90;100.00;101471.38;5105647;27;45675;-78
2023/01/14 02:45:03;;;;;;;;;2.00;2.00;;;;;11.81;100.00;101466.75;5092465;27;45501;-77
2023/01/14 02:47:31;;;;;;;;;3.00;3.00;;;;;11.84;100.00;101465.59;5077851;28;45318;-78
2023/01/14 02:49:59;;;;;;;;;4.67;4.00;;;;;11.85;100.00;101462.72;5080522;27;47367;-77
2023/01/14 02:52:25;;;;;;;;;3.00;1.33;;;;;11.88;100.00;101467.06;5102769;27;45405;-77
2023/01/14 02:55:00;;;;;;;;;4.00;4.00;;;;;11.87;100.00;101459.88;5095000;27;45423;-78
2023/01/14 02:57:58;;;;;;;;;2.33;2.33;;;;;11.85;100.00;101464.59;5102453;27;45358;-77
2023/01/14 03:00:52;;;;;;;;;0.00;0.00;;;;;11.94;100.00;101452.88;5063974;27;45491;-78
2023/01/14 03:03:28;;;;;;;;;3.00;3.00;;;;;11.93;100.00;101437.53;5091932;27;45364;-78
2023/01/14 03:06:08;;;;;;;;;2.00;2.00;;;;;11.94;100.00;101429.22;5083568;27;45715;-77
2023/01/14 03:08:39;;;;;;;;;3.00;2.00;;;;;11.96;100.00;101432.69;5096768;27;45483;-77
2023/01/14 03:11:08;;;;;;;;;1.33;1.33;;;;;12.01;100.00;101427.66;5103107;27;46115;-77
2023/01/14 03:13:57;;;;;;;;;3.00;1.00;;;;;12.04;100.00;101424.66;5099470;27;45247;-78
2023/01/14 03:16:38;;;;;;;;;0.00;0.00;;;;;12.07;100.00;101413.47;5101975;27;45454;-77
2023/01/14 03:19:11;;;;;;;;;2.00;2.00;;;;;12.02;100.00;101401.28;5101954;27;45327;-78
2023/01/14 03:21:43;;;;;;;;;2.00;1.00;;;;;12.10;100.00;101390.56;5080062;27;46989;-77
2023/01/14 03:24:22;;;;;;;;;2.00;0.00;;;;;12.10;100.00;101393.28;5101981;27;45531;-77
2023/01/14 03:26:51;;;;;;;;;3.00;1.33;;;;;12.03;100.00;101381.22;5101054;27;45522;-77
2023/01/14 03:29:27;;;;;;;;;0.00;0.00;;;;;12.00;100.00;101373.31;5101340;27;45487;-78
2023/01/14 03:32:01;;;;;;;;;3.00;1.00;;;;;12.07;100.00;101378.06;5075586;27;47318;-77
2023/01/14 03:34:33;;;;;;;;;3.33;2.00;;;;;12.07;100.00;101364.44;5079751;27;45388;-78
2023/01/14 03:37:02;;;;;;;;;2.00;1.00;;;;;12.16;100.00;101349.09;5103806;27;45510;-78
2023/01/14 03:39:29;;;;;;;;;0.67;0.67;;;;;12.10;100.00;101352.41;5078186;27;45334;-78
2023/01/14 03:42:18;;;;;;;;;1.00;1.00;;;;;12.18;100.00;101338.06;5081672;27;45600;-77
2023/01/14 03:44:46;;;;;;;;;1.00;1.00;;;;;12.21;100.00;101327.72;5096391;27;45306;-78
2023/01/14 03:47:12;;;;;;;;;2.00;1.67;;;;;12.11;100.00;101335.06;5102837;27;45447;-78
2023/01/14 03:49:38;;;;;;;;;4.33;2.00;;;;;12.12;100.00;101323.19;5098653;27;45453;-78
2023/01/14 03:52:15;;;;;;;;;0.00;0.00;;;;;12.05;100.00;101317.41;5083059;27;46687;-78
2023/01/14 03:54:51;;;;;;;;;0.00;0.00;;;;;12.25;100.00;101325.59;5098698;27;45459;-78
2023/01/14 03:57:57;;;;;;;;;5.00;2.00;;;;;12.16;100.00;101321.88;5101632;27;45462;-78
2023/01/14 04:00:40;;;;;;;;;1.00;0.00;;;;;12.23;100.00;101314.84;5091467;27;45239;-78
2023/01/14 04:03:12;;;;;;;;;2.33;0.33;;;;;12.20;100.00;101314.28;5098678;27;46476;-78
2023/01/14 04:05:38;;;;;;;;;1.00;1.00;;;;;12.22;100.00;101299.50;5094682;27;45330;-79
2023/01/14 04:08:05;;;;;;;;;1.00;1.00;;;;;12.32;100.00;101294.91;5099229;27;45397;-78
2023/01/14 04:10:31;;;;;;;;;0.67;0.67;;;;;12.34;100.00;101278.41;5094422;27;45363;-78
2023/01/14 04:15:40;;;;;;;;;4.00;2.33;;;;;12.35;100.00;101270.06;5101117;27;45431;-79
2023/01/14 04:18:06;;;;;;;;;2.00;2.00;;;;;12.22;100.00;101257.75;5101446;27;45365;-79
2023/01/14 04:20:31;;;;;;;;;3.67;2.00;;;;;12.23;100.00;101248.59;5083389;27;45489;-79
2023/01/14 04:22:57;;;;;;;;;2.33;1.67;;;;;12.38;100.00;101242.53;5083557;27;48184;-78
2023/01/14 04:25:22;;;;;;;;;2.67;1.00;;;;;12.44;100.00;101247.38;5102070;27;45706;-79
2023/01/14 04:27:47;;;;;;;;;3.67;2.33;;;;;12.41;100.00;101252.28;5085301;27;45402;-78
2023/01/14 04:30:13;;;;;;;;;4.00;1.00;;;;;12.47;100.00;101232.63;5072634;27;45432;-78
2023/01/14 04:32:38;;;;;;;;;4.67;1.33;;;;;12.44;100.00;101224.72;5083304;27;47562;-77
2023/01/14 04:35:04;;;;;;;;;4.33;4.33;;;;;12.28;100.00;101238.97;5101437;27;45235;-78
2023/01/14 04:37:30;;;;;;;;;2.00;1.00;;;;;12.24;100.00;101245.72;5082256;27;45275;-78
2023/01/14 04:39:55;;;;;;;;;4.67;2.00;;;;;12.40;100.00;101239.66;5082079;27;45599;-77
2023/01/14 04:42:27;;;;;;;;;4.33;1.00;;;;;12.24;100.00;101247.59;5102256;27;45429;-78
2023/01/14 04:44:54;;;;;;;;;5.67;2.00;;;;;12.19;100.00;101248.03;5089501;27;45293;-77
2023/01/14 04:47:19;;;;;;;;;4.00;1.00;;;;;12.35;100.00;101237.38;5080549;27;45444;-77
2023/01/14 04:49:45;;;;;;;;;4.00;1.67;;;;;12.37;100.00;101219.00;5100909;27;45218;-78
2023/01/14 04:52:10;;;;;;;;;2.33;2.33;;;;;12.43;100.00;101225.72;5082487;27;47077;-78
2023/01/14 04:54:35;;;;;;;;;5.00;3.00;;;;;12.40;100.00;101218.72;5098283;27;45329;-78
2023/01/14 04:57:01;;;;;;;;;5.00;5.00;;;;;12.49;100.00;101215.09;5095865;27;45949;-78
2023/01/14 04:59:26;;;;;;;;;5.67;2.00;;;;;12.43;100.00;101206.66;5101541;27;45362;-78
2023/01/14 05:01:51;;;;;;;;;3.67;2.33;;;;;12.48;100.00;101194.31;5081975;27;46980;-78
2023/01/14 05:04:17;;;;;;;;;5.00;3.33;;;;;12.41;100.00;101170.53;5078327;27;45378;-78
2023/01/14 05:06:42;;;;;;;;;8.00;2.33;;;;;12.48;100.00;101171.66;5083776;27;45770;-78
2023/01/14 05:09:07;;;;;;;;;3.00;1.67;;;;;12.54;100.00;101170.19;5097574;27;45595;-78
2023/01/14 05:11:33;;;;;;;;;3.67;1.00;;;;;12.39;100.00;101167.97;5100615;27;46580;-78
2023/01/14 05:13:58;;;;;;;;;5.00;2.00;;;;;12.50;100.00;101175.06;5096843;27;45293;-78
2023/01/14 05:16:23;;;;;;;;;4.33;2.00;;;;;12.46;100.00;101163.63;5099830;27;45420;-78
2023/01/14 05:18:50;;;;;;;;;10.67;3.00;;;;;12.43;100.00;101172.09;5097530;27;45416;-78
2023/01/14 05:21:17;;;;;;;;;4.33;2.67;;;;;12.41;100.00;101176.84;5075956;27;47248;-77
2023/01/14 05:23:43;;;;;;;;;4.00;3.00;;;;;12.42;100.00;101156.72;5089063;27;45364;-77
2023/01/14 05:26:08;;;;;;;;;6.33;3.67;;;;;12.46;100.00;101163.63;5093107;27;45243;-76
2023/01/14 05:28:34;;;;;;;;;3.67;2.67;;;;;12.34;100.00;101167.56;5091233;27;45309;-77
2023/01/14 05:30:59;;;;;;;;;5.67;1.00;;;;;12.39;100.00;101165.22;5074937;27;47912;-77
2023/01/14 05:33:25;;;;;;;;;4.67;1.00;;;;;12.40;100.00;101142.44;5098328;27;45250;-77
2023/01/14 05:35:54;;;;;;;;;2.00;0.00;;;;;12.24;100.00;101147.66;5082822;27;45371;-77
2023/01/14 05:38:20;;;;;;;;;4.33;2.00;;;;;12.44;100.00;101142.97;5104937;27;45500;-78
2023/01/14 05:40:45;;;;;;;;;0.33;0.00;;;;;12.30;100.00;101136.16;5084304;27;48475;-77
2023/01/14 05:45:54;;;;;;;;;1.33;1.33;;;;;12.32;100.00;101123.25;5092235;27;45350;-77
2023/01/14 05:48:22;;;;;;;;;0.00;0.00;;;;;12.33;100.00;101114.06;5095355;27;45326;-77
2023/01/14 05:50:52;;;;;;;;;3.67;2.00;;;;;12.26;100.00;101101.19;5099534;27;47799;-77
2023/01/14 05:53:18;;;;;;;;;3.00;1.67;;;;;12.28;100.00;101100.00;5087138;27;45307;-78
2023/01/14 05:55:44;;;;;;;;;6.00;2.67;;;;;12.31;100.00;101087.97;5086461;27;45343;-77
2023/01/14 05:58:10;;;;;;;;;3.00;1.33;;;;;12.39;100.00;101088.94;5106062;27;45337;-77
2023/01/14 06:06:21;;;;;;;;;1.33;1.33;;;;;12.33;100.00;101058.72;5101087;27;45315;-77
2023/01/14 06:08:48;;;;;;;;;3.00;1.33;;;;;12.31;100.00;101060.72;5095468;27;45408;-77
2023/01/14 06:11:14;;;;;;;;;9.33;3.67;;;;;12.31;100.00;101064.31;5102236;27;46375;-77
2023/01/14 06:13:39;;;;;;;;;1.00;1.00;;;;;12.29;100.00;101055.41;5091724;27;45405;-78
2023/01/14 06:16:07;;;;;;;;;2.00;0.00;;;;;12.11;100.00;101057.25;5101660;27;45616;-80
2023/01/14 06:18:41;;;;;;;;;1.67;1.00;;;;;12.12;100.00;101034.47;5099583;27;45485;-77
2023/01/14 06:21:09;;;;;;;;;9.00;5.00;;;;;12.18;100.00;101035.72;5098359;27;46529;-78
2023/01/14 06:23:34;;;;;;;;;5.00;2.00;;;;;12.15;100.00;101028.69;5088830;27;45234;-79
2023/01/14 06:26:00;;;;;;;;;2.00;2.00;;;;;12.09;100.00;101029.31;5094533;27;45377;-78
2023/01/14 06:28:26;;;;;;;;;6.33;1.67;;;;;12.15;100.00;101028.69;5097210;27;45343;-80
2023/01/14 06:30:52;;;;;;;;;2.00;1.00;;;;;12.08;100.00;101033.88;5092684;27;46724;-80
2023/01/14 06:33:17;;;;;;;;;4.00;2.33;;;;;12.20;100.00;101036.44;5080980;28;45356;-78
2023/01/14 06:35:44;;;;;;;;;3.67;1.67;;;;;12.10;100.00;101033.75;5077558;27;45456;-77
2023/01/14 06:38:11;;;;;;;;;2.00;0.67;;;;;12.09;100.00;101018.41;5098225;27;45356;-77
2023/01/14 06:40:38;;;;;;;;;2.33;1.67;;;;;12.18;100.00;100995.72;5100391;27;45424;-78
2023/01/14 06:43:04;;;;;;;;;5.00;3.67;;;;;12.18;100.00;101003.88;5082201;27;45320;-78
2023/01/14 06:45:29;;;;;;;;;0.00;0.00;;;;;12.12;100.00;100998.19;5080762;27;45645;-78
2023/01/14 06:47:55;;;;;;;;;2.00;2.00;;;;;12.29;100.00;100998.22;5104424;27;45281;-77
2023/01/14 06:50:20;;;;;;;;;3.33;1.33;;;;;12.31;100.00;100981.72;5097806;27;46463;-77
2023/01/14 06:52:47;;;;;;;;;4.00;3.00;;;;;12.06;100.00;100969.69;5103387;27;45351;-77
2023/01/14 06:55:12;;;;;;;;;3.67;2.67;;;;;11.94;100.00;100987.25;5083354;27;45519;-77
2023/01/14 06:57:38;;;;;;;;;5.00;2.00;;;;;11.98;100.00;100996.84;5102796;27;45515;-79
2023/01/14 07:00:04;;;;;;;;;3.00;2.00;;;;;12.23;100.00;100993.38;5084321;27;47009;-78
2023/01/14 07:02:29;;;;;;;;;4.67;2.67;;;;;11.99;100.00;100953.09;5100957;27;45410;-78
2023/01/14 07:04:54;;;;;;;;;5.00;2.33;;;;;11.98;100.00;100970.44;5092358;27;45297;-77
2023/01/14 07:07:20;;;;;;;;;2.67;1.00;;;;;12.23;100.00;100960.69;5104557;27;45301;-78
2023/01/14 07:09:45;;;;;;;;;3.33;1.33;;;;;12.15;100.00;100967.91;5102832;27;45709;-77
2023/01/14 07:12:11;;;;;;;;;3.00;1.00;;;;;12.25;100.00;100979.59;5076595;27;45426;-77
2023/01/14 07:14:36;;;;;;;;;3.33;1.00;;;;;12.15;100.00;100967.91;5102371;27;45400;-80
2023/01/14 07:17:02;;;;;;;;;5.00;2.67;;;;;12.22;100.00;100969.88;5102230;27;45552;-77
2023/01/14 07:19:27;;;;;;;;;1.00;1.00;;;;;12.19;100.00;100964.75;5084476;27;48114;-80
2023/01/14 07:21:53;;;;;;;;;2.33;2.00;;;;;11.99;100.00;100953.09;5101033;27;45331;-77
2023/01/14 07:24:18;;;;;;;;;2.00;2.00;;;;;12.22;100.00;100950.78;5095115;27;45495;-77
2023/01/14 07:26:43;;;;;;;;;3.00;1.33;;;;;12.29;100.00;100948.31;5096993;27;45456;-78
2023/01/14 07:29:09;;;;;;;;;6.33;3.33;;;;;12.34;100.00;100954.19;5103092;27;46383;-77
2023/01/14 07:31:34;;;;;;;;;0.67;0.00;;;;;12.24;100.00;100940.63;5075507;28;45384;-77
2023/01/14 07:34:00;;;;;;;;;4.67;3.00;;;;;12.18;100.00;100921.31;5086356;27;45533;-76
2023/01/14 07:36:25;;;;;;;;;1.33;1.33;;;;;12.24;100.00;100928.84;5072006;27;45420;-77
2023/01/14 07:38:50;;;;;;;;;3.33;3.00;;;;;12.22;100.00;100903.63;5095741;27;45351;-77
2023/01/14 07:41:18;;;;;;;;;0.67;0.33;;;;;12.26;100.00;100911.34;5103398;27;45308;-77
2023/01/14 07:43:44;;;;;;;;;0.33;0.33;;;;;12.22;100.00;100909.94;5095944;27;45310;-77
2023/01/14 07:46:09;;;;;;;;;3.67;3.00;;;;;12.26;100.00;100894.16;5092836;27;45369;-79
2023/01/14 07:48:35;;;;;;;;;7.00;2.00;;;;;12.24;100.00;100890.72;5102466;27;46176;-78
2023/01/14 07:51:02;;;;;;;;;1.00;0.00;;;;;12.11;100.00;100893.84;5091544;27;45448;-78
2023/01/14 07:53:27;;;;;;;;;1.33;1.00;;;;;12.10;100.00;100892.13;5082430;27;45323;-77
2023/01/14 07:55:53;;;;;;;;;4.00;1.67;;;;;12.12;100.00;100890.09;5094164;27;45505;-78
2023/01/14 07:58:18;;;;;;;;;1.33;1.33;;;;;12.01;100.00;100880.28;5080514;27;47573;-78
2023/01/14 08:00:43;;;;;;;;;4.00;2.00;;;;;12.22;100.00;100885.41;5074597;27;45436;-78
2023/01/14 08:03:09;;;;;;;;;2.33;2.00;;;;;12.29;100.00;100888.38;5081487;27;45570;-78
2023/01/14 08:05:34;;;;;;;;;0.67;0.67;;;;;12.25;100.00;100871.50;5091197;27;45234;-78
2023/01/14 08:08:00;;;;;;;;;2.00;2.00;;;;;12.35;100.00;100877.72;5099098;27;46630;-78
2023/01/14 08:10:25;;;;;;;;;2.00;1.00;;;;;12.04;100.00;100873.69;5077414;27;45155;-77
2023/01/14 08:12:50;;;;;;;;;0.00;0.00;;;;;12.03;100.00;100878.28;5078045;27;45392;-78
2023/01/14 08:15:16;;;;;;;;;1.00;1.00;;;;;12.26;100.00;100864.19;5077775;27;45415;-77
2023/01/14 08:17:41;;;;;;;;;2.33;2.33;;;;;12.23;100.00;100867.22;5095656;27;45540;-77
2023/01/14 08:20:08;;;;;;;;;1.00;1.00;;;;;12.24;100.00;100848.00;5093478;27;45685;-77
2023/01/14 08:22:34;;;;;;;;;1.33;1.33;;;;;12.25;100.00;100852.44;5094853;27;45376;-77
2023/01/14 08:24:59;;;;;;;;;4.33;1.00;;;;;12.23;100.00;100849.00;5074202;27;45562;-76
2023/01/14 08:27:27;;;;;;;;;4.67;3.00;;;;;12.06;100.00;100844.41;5083624;27;47178;-78
2023/01/14 08:29:52;;;;;;;;;1.00;1.00;;;;;12.06;100.00;100850.72;5072659;27;45571;-77
2023/01/14 08:32:18;;;;;;;;;4.00;2.00;;;;;12.24;100.00;100848.00;5077115;27;45340;-77
2023/01/14 08:34:43;;;;;;;;;3.33;1.67;;;;;12.19;100.00;100831.28;5077901;28;45353;-77
2023/01/14 08:37:08;;;;;;;;;1.67;1.67;;;;;12.21;100.00;100840.13;5096459;27;45362;-77
2023/01/14 08:39:34;;;;;;;;;1.33;1.00;;;;;12.18;100.00;100837.72;5101474;27;45249;-77
2023/01/14 08:41:59;;;;;;;;;5.67;2.00;;;;;11.97;100.00;100829.03;5102742;27;45316;-77
2023/01/14 08:44:24;;;;;;;;;1.00;1.00;;;;;11.92;100.00;100823.16;5079466;28;45342;-77
2023/01/14 08:46:50;;;;;;;;;1.67;1.67;;;;;12.13;100.00;100841.94;5097850;27;45496;-78
2023/01/14 08:49:15;;;;;;;;;2.67;2.00;;;;;12.22;100.00;100828.22;5098195;27;45382;-78
2023/01/14 08:51:40;;;;;;;;;3.00;1.33;;;;;12.32;100.00;100814.50;5066934;27;45499;-77
2023/01/14 08:54:06;;;;;;;;;0.33;0.33;;;;;12.28;100.00;100816.69;5080250;27;45351;-77
2023/01/14 08:56:32;;;;;;;;;1.67;1.67;;;;;12.26;100.00;100813.28;5102404;27;46694;-77
2023/01/14 08:58:57;;;;;;;;;2.33;1.00;;;;;12.21;100.00;100828.38;5094622;27;45424;-77
2023/01/14 09:01:22;;;;;;;;;1.00;0.00;;;;;12.31;100.00;100821.84;5085025;27;45409;-76
2023/01/14 09:03:48;;;;;;;;;1.33;1.33;;;;;12.26;100.00;100824.19;5101777;27;45436;-77
2023/01/14 09:06:16;;;;;;;;;1.67;0.33;;;;;12.41;100.00;100808.97;5078089;27;46862;-77
2023/01/14 09:17:12;;;;;;;;;2.67;1.00;;;;;12.44;100.00;100780.53;5098278;27;45417;-78
2023/01/14 09:19:46;;;;;;;;;2.33;2.00;;;;;12.59;100.00;100786.25;5091999;27;45261;-78
2023/01/14 09:22:15;;;;;;;;;2.00;2.00;;;;;12.70;100.00;100786.00;5095665;27;45326;-78
2023/01/14 09:24:41;;;;;;;;;1.33;1.33;;;;;12.56;100.00;100779.28;5072866;27;45392;-78
2023/01/14 09:27:06;;;;;;;;;1.67;1.00;;;;;12.56;100.00;100775.69;5102393;27;45366;-78
2023/01/14 09:29:33;;;;;;;;;2.33;1.00;;;;;12.78;100.00;100773.25;5089725;27;45527;-79
2023/01/14 09:31:58;;;;;;;;;1.00;1.00;;;;;12.90;100.00;100773.84;5081430;27;45791;-76
2023/01/14 09:34:24;;;;;;;;;3.33;1.00;;;;;12.89;100.00;100772.13;5083621;27;45275;-79
2023/01/14 09:36:49;;;;;;;;;4.33;2.00;;;;;12.77;100.00;100762.53;5078030;27;47607;-79
2023/01/14 09:39:15;;;;;;;;;1.00;1.00;;;;;12.89;100.00;100772.13;5088953;27;45310;-77
2023/01/14 09:41:56;;;;;;;;;1.67;1.67;;;;;12.80;100.00;100770.38;5099154;27;45428;-77
2023/01/14 09:44:23;;;;;;;;;1.67;1.00;;;;;12.80;100.00;100756.75;5100534;27;45275;-77
2023/01/14 09:46:50;;;;;;;;;1.00;1.00;;;;;12.76;100.00;100752.66;5098743;27;46392;-77
2023/01/14 09:49:19;;;;;;;;;1.33;1.33;;;;;12.78;100.00;100756.91;5099038;27;45294;-77
2023/01/14 09:51:44;;;;;;;;;2.00;0.67;;;;;12.82;100.00;100752.84;5091380;27;45387;-78
2023/01/14 09:54:21;;;;;;;;;2.67;2.00;;;;;12.93;100.00;100735.31;5084633;27;45589;-78
2023/01/14 09:56:59;;;;;;;;;2.67;1.00;;;;;12.84;100.00;100739.91;5085472;27;46713;-76
2023/01/14 09:59:46;;;;;;;;;1.00;1.00;;;;;12.92;100.00;100739.09;5095575;27;45228;-76
2023/01/14 10:02:19;;;;;;;;;5.00;1.00;;;;;12.90;100.00;100740.25;5099496;27;45563;-76
2023/01/14 10:04:45;;;;;;;;;4.00;1.00;;;;;13.02;100.00;100719.84;5084207;27;45534;-76
2023/01/14 10:07:13;;;;;;;;;1.00;1.00;;;;;13.08;100.00;100717.31;5098018;27;45348;-76
2023/01/14 10:09:45;;;;;;;;;1.00;1.00;;;;;13.03;100.00;100711.50;5092360;27;45398;-75
2023/01/14 10:12:17;;;;;;;;;2.00;2.00;;;;;13.03;100.00;100724.28;5097603;27;45559;-75
2023/01/14 10:15:19;;;;;;;;;3.00;2.00;;;;;13.13;100.00;100712.28;5091262;27;45377;-79
2023/01/14 10:17:59;;;;;;;;;2.00;1.33;;;;;13.17;100.00;100721.81;5095614;27;45317;-75
2023/01/14 10:20:46;;;;;;;;;1.00;1.00;;;;;13.41;100.00;100712.00;5095641;27;45258;-77
2023/01/14 10:23:15;;;;;;;;;2.00;1.00;;;;;13.23;100.00;100693.88;5098235;27;45431;-79
2023/01/14 10:25:48;;;;;;;;;1.33;1.00;;;;;13.23;100.00;100695.75;5091318;27;45440;-76
2023/01/14 10:28:16;;;;;;;;;1.00;1.00;;;;;13.20;100.00;100691.50;5097174;27;45400;-75
2023/01/14 10:30:42;;;;;;;;;3.00;1.00;;;;;13.39;100.00;100686.75;5090616;27;45239;-75
2023/01/14 10:33:14;;;;;;;;;2.00;1.00;;;;;13.37;100.00;100684.16;5096178;27;45198;-75
2023/01/14 10:35:43;;;;;;;;;3.33;2.00;;;;;13.45;100.00;100684.19;5090428;27;45343;-75
2023/01/14 10:38:18;;;;;;;;;5.00;2.00;;;;;13.31;100.00;100684.84;5079578;28;46722;-76
2023/01/14 10:40:46;;;;;;;;;1.67;1.67;;;;;13.46;100.00;100690.50;5090422;27;45374;-77
2023/01/14 10:43:26;;;;;;;;;3.00;1.67;;;;;13.49;100.00;100679.25;5103503;27;45302;-75
2023/01/14 10:45:52;;;;;;;;;3.00;2.00;;;;;13.29;100.00;100675.13;5100805;27;45418;-75
2023/01/14 10:48:19;;;;;;;;;1.00;1.00;;;;;13.40;100.00;100664.75;5103264;27;45450;-76
2023/01/14 10:50:45;;;;;;;;;2.00;2.00;;;;;13.36;100.00;100643.44;5084040;27;45491;-77
2023/01/14 10:53:19;;;;;;;;;4.33;3.00;;;;;13.33;100.00;100663.72;5104575;27;45416;-76
2023/01/14 10:55:59;;;;;;;;;7.00;3.00;;;;;13.40;100.00;100648.38;5083647;27;45273;-78
2023/01/14 10:58:34;;;;;;;;;0.00;0.00;;;;;13.41;100.00;100657.41;5085768;27;47264;-76
2023/01/14 11:01:05;;;;;;;;;3.00;2.00;;;;;13.39;100.00;100634.88;5100194;27;45334;-77
2023/01/14 11:03:42;;;;;;;;;2.67;2.67;;;;;13.28;100.00;100648.88;5076283;27;45351;-77
2023/01/14 11:06:13;;;;;;;;;3.00;1.00;;;;;13.34;100.00;100640.00;5084745;27;45572;-76
2023/01/14 11:08:48;;;;;;;;;3.00;2.00;;;;;13.27;100.00;100607.09;5099267;27;45326;-76
2023/01/14 11:11:37;;;;;;;;;2.00;2.00;;;;;13.32;100.00;100610.16;5093935;27;45481;-76
2023/01/14 11:14:18;;;;;;;;;0.33;0.33;;;;;13.09;100.00;100631.75;5086770;27;45572;-79
2023/01/14 11:16:44;;;;;;;;;1.00;1.00;;;;;13.30;100.00;100608.59;5081637;27;45535;-77
2023/01/14 11:19:23;;;;;;;;;1.00;1.00;;;;;13.42;100.00;100615.47;5098191;27;45316;-76
2023/01/14 11:21:52;;;;;;;;;1.00;1.00;;;;;13.43;100.00;100603.53;5098035;27;45467;-78
2023/01/14 11:24:20;;;;;;;;;3.00;1.00;;;;;13.35;100.00;100595.31;5071291;27;45350;-80
2023/01/14 11:26:45;;;;;;;;;3.00;2.00;;;;;13.22;100.00;100583.03;5084117;27;45451;-77
2023/01/14 11:29:23;;;;;;;;;3.00;2.00;;;;;13.42;100.00;100571.78;5090121;27;46531;-77
2023/01/14 11:31:52;;;;;;;;;3.00;3.00;;;;;13.61;100.00;100560.50;5076643;28;45397;-77
2023/01/14 11:34:29;;;;;;;;;2.67;2.67;;;;;13.68;100.00;100560.66;5086400;27;45363;-77
2023/01/14 11:37:15;;;;;;;;;1.00;1.00;;;;;13.57;100.00;100551.81;5096939;27;45462;-77
2023/01/14 11:39:48;;;;;;;;;2.00;1.67;;;;;13.63;100.00;100553.00;5084785;27;47310;-77
2023/01/14 11:42:26;;;;;;;;;4.00;1.00;;;;;13.40;100.00;100546.53;5100538;27;45598;-77
2023/01/14 11:45:03;;;;;;;;;2.33;1.00;;;;;13.42;100.00;100555.41;5082501;27;45475;-79
2023/01/14 11:47:29;;;;;;;;;4.00;4.00;;;;;13.49;100.00;100545.53;5078975;27;45343;-76
2023/01/14 11:50:19;;;;;;;;;1.00;1.00;;;;;13.49;100.00;100527.28;5092727;27;46442;-78